createdAt,value
2023-02-13T00:00:28.068Z,48.10
2023-02-13T00:02:58.175Z,52.30
2023-02-13T00:05:30.938Z,39.63
2023-02-13T00:08:00.968Z,60.67
2023-02-13T00:10:31.197Z,46.03
2023-02-13T00:13:01.208Z,60.90
2023-02-13T00:15:31.360Z,64.10
2023-02-13T00:18:01.360Z,42.63
2023-02-13T00:20:34.023Z,58.87
2023-02-13T00:23:04.307Z,58.43
2023-02-13T00:25:34.335Z,60.90
2023-02-13T00:28:04.331Z,47.33
2023-02-13T00:30:34.396Z,42.73
2023-02-13T00:33:04.401Z,44.20
2023-02-13T00:35:36.983Z,50.20
2023-02-13T00:38:07.030Z,47.20
2023-02-13T00:40:37.256Z,59.10
2023-02-13T00:43:07.262Z,52.97
2023-02-13T00:45:39.042Z,59.17
2023-02-13T00:48:09.121Z,44.77
2023-02-13T00:50:41.704Z,49.73
2023-02-13T00:53:12.844Z,41.70
2023-02-13T00:55:42.908Z,49.67
2023-02-13T00:58:13.748Z,44.87
2023-02-13T01:00:44.048Z,49.50
2023-02-13T01:03:14.071Z,47.97
2023-02-13T01:05:47.770Z,45.23
2023-02-13T01:08:20.409Z,47.10
2023-02-13T01:10:51.829Z,49.17
2023-02-13T01:13:21.810Z,46.33
2023-02-13T01:15:52.405Z,39.93
2023-02-13T01:18:23.877Z,54.07
2023-02-13T01:21:05.884Z,36.07
2023-02-13T01:23:39.874Z,43.87
2023-02-13T01:26:13.842Z,54.80
2023-02-13T01:28:43.736Z,42.77
2023-02-13T01:31:15.117Z,48.57
2023-02-13T01:33:45.113Z,41.33
2023-02-13T01:36:19.047Z,41.20
2023-02-13T01:38:48.994Z,42.47
2023-02-13T01:41:19.008Z,59.00
2023-02-13T01:43:54.381Z,57.40
2023-02-13T01:46:34.661Z,43.90
2023-02-13T01:49:18.617Z,61.47
2023-02-13T01:51:56.009Z,43.80
2023-02-13T01:54:33.125Z,54.53
2023-02-13T01:57:09.169Z,61.83
2023-02-13T01:59:47.525Z,49.13
2023-02-13T02:02:18.419Z,44.07
2023-02-13T02:04:50.990Z,50.03
2023-02-13T02:07:30.510Z,46.63
2023-02-13T02:10:12.987Z,50.97
2023-02-13T02:12:52.541Z,59.03
2023-02-13T02:15:24.028Z,56.23
2023-02-13T02:17:53.990Z,55.90
2023-02-13T02:20:46.796Z,58.33
2023-02-13T02:24:07.190Z,52.70
2023-02-13T02:27:07.716Z,50.37
2023-02-13T02:30:30.686Z,49.97
2023-02-13T02:33:22.242Z,74.40
2023-02-13T02:36:15.451Z,59.80
2023-02-13T02:39:05.701Z,50.87
2023-02-13T02:41:57.251Z,50.40
2023-02-13T02:44:41.839Z,36.07
2023-02-13T02:47:35.083Z,69.87
2023-02-13T02:50:33.616Z,55.43
2023-02-13T02:53:21.767Z,49.37
2023-02-13T02:56:00.419Z,61.77
2023-02-13T02:58:52.849Z,53.60
2023-02-13T03:01:42.981Z,57.33
2023-02-13T03:04:34.553Z,65.67
2023-02-13T03:07:14.358Z,53.70
2023-02-13T03:10:03.978Z,49.83
2023-02-13T03:12:55.735Z,64.47
2023-02-13T03:15:29.260Z,49.53
2023-02-13T03:18:13.276Z,62.60
2023-02-13T03:21:06.221Z,47.83
2023-02-13T03:23:55.792Z,51.67
2023-02-13T03:26:50.957Z,43.20
2023-02-13T03:29:50.816Z,49.83
2023-02-13T03:32:30.773Z,43.63
2023-02-13T03:35:31.359Z,56.30
2023-02-13T03:38:11.075Z,45.80
2023-02-13T03:41:04.494Z,46.57
2023-02-13T03:43:45.648Z,56.30
2023-02-13T03:46:18.137Z,49.53
2023-02-13T03:49:02.988Z,61.23
2023-02-13T03:51:40.130Z,37.70
2023-02-13T03:54:21.143Z,43.63
2023-02-13T03:57:07.935Z,47.40
2023-02-13T03:59:40.214Z,47.13
2023-02-13T04:02:17.284Z,52.23
2023-02-13T04:04:55.350Z,49.77
2023-02-13T04:07:35.556Z,61.10
2023-02-13T04:10:10.214Z,58.47
2023-02-13T04:12:56.277Z,39.67
2023-02-13T04:15:34.717Z,51.90
2023-02-13T04:18:13.648Z,52.80
2023-02-13T04:20:44.102Z,46.77
2023-02-13T04:23:15.788Z,47.57
2023-02-13T04:25:51.158Z,46.50
2023-02-13T04:28:23.807Z,41.40
2023-02-13T04:30:53.854Z,48.10
2023-02-13T04:33:23.884Z,48.93
2023-02-13T04:35:53.979Z,62.33
2023-02-13T04:38:23.961Z,42.10
2023-02-13T04:40:53.981Z,47.23
2023-02-13T04:43:26.732Z,38.50
2023-02-13T04:45:56.704Z,44.53
2023-02-13T04:48:26.735Z,53.37
2023-02-13T04:50:59.716Z,41.80
2023-02-13T04:53:30.146Z,38.83
2023-02-13T04:56:00.165Z,43.97
2023-02-13T04:58:32.682Z,47.17
2023-02-13T05:01:02.681Z,42.70
2023-02-13T05:03:32.644Z,44.83
2023-02-13T05:06:02.586Z,45.97
2023-02-13T05:08:32.536Z,48.20
2023-02-13T05:11:02.524Z,41.70
2023-02-13T05:13:35.244Z,49.93
2023-02-13T05:16:05.776Z,43.97
2023-02-13T05:18:35.802Z,42.30
2023-02-13T05:21:18.367Z,46.43
2023-02-13T05:23:48.341Z,40.30
2023-02-13T05:26:18.289Z,55.53
2023-02-13T05:29:03.326Z,49.47
2023-02-13T05:31:33.468Z,45.17
2023-02-13T05:34:03.464Z,55.10
2023-02-13T05:36:33.411Z,50.33
2023-02-13T05:39:03.810Z,45.80
2023-02-13T05:41:33.942Z,45.33
2023-02-13T05:44:07.586Z,58.97
2023-02-13T05:46:39.237Z,48.87
2023-02-13T05:49:11.297Z,59.30
2023-02-13T05:51:42.214Z,53.67
2023-02-13T05:54:12.281Z,55.50
2023-02-13T05:56:42.371Z,46.67
2023-02-13T05:59:14.977Z,43.20
2023-02-13T06:01:45.024Z,52.07
2023-02-13T06:04:18.710Z,44.70
2023-02-13T06:06:48.864Z,46.93
2023-02-13T06:09:18.845Z,62.87
2023-02-13T06:11:48.896Z,49.27
2023-02-13T06:14:21.533Z,51.30
2023-02-13T06:16:51.479Z,48.43
2023-02-13T06:19:21.428Z,60.10
2023-02-13T06:21:51.430Z,44.80
2023-02-13T06:24:21.481Z,54.57
2023-02-13T06:26:51.440Z,56.00
2023-02-13T06:29:24.045Z,58.20
2023-02-13T06:31:54.126Z,76.13
2023-02-13T06:34:24.163Z,62.53
2023-02-13T06:36:54.111Z,70.90
2023-02-13T06:39:24.089Z,49.93
2023-02-13T06:41:54.148Z,81.87
2023-02-13T06:44:26.675Z,73.43
2023-02-13T06:46:56.726Z,63.77
2023-02-13T06:49:26.709Z,69.00
2023-02-13T06:51:56.711Z,83.63
2023-02-13T06:54:44.665Z,69.70
2023-02-13T06:57:16.574Z,79.33
2023-02-13T06:59:49.153Z,91.83
2023-02-13T07:02:19.142Z,68.00
2023-02-13T07:04:49.192Z,82.60
2023-02-13T07:07:19.144Z,65.30
2023-02-13T07:09:49.119Z,61.27
2023-02-13T07:12:19.148Z,59.80
2023-02-13T07:14:51.697Z,59.23
2023-02-13T07:17:21.722Z,69.87
2023-02-13T07:19:51.653Z,62.73
2023-02-13T07:22:22.136Z,60.87
2023-02-13T07:24:52.165Z,73.47
2023-02-13T07:27:22.165Z,67.73
2023-02-13T07:29:54.742Z,67.33
2023-02-13T07:32:24.935Z,47.63
2023-02-13T07:35:02.107Z,61.00
2023-02-13T07:37:33.588Z,52.63
2023-02-13T07:40:05.613Z,60.47
2023-02-13T07:42:37.318Z,58.27
2023-02-13T07:45:12.039Z,52.93
2023-02-13T07:47:42.040Z,62.97
2023-02-13T07:50:13.221Z,58.60
2023-02-13T07:52:43.227Z,59.07
2023-02-13T07:55:14.209Z,62.63
2023-02-13T07:57:44.155Z,56.37
2023-02-13T08:00:19.164Z,58.70
2023-02-13T08:02:49.591Z,64.20
2023-02-13T08:05:19.769Z,62.13
2023-02-13T08:07:49.743Z,68.23
2023-02-13T08:10:32.650Z,53.93
2023-02-13T08:13:03.548Z,64.63
2023-02-13T08:15:36.153Z,59.73
2023-02-13T08:18:06.301Z,66.83
2023-02-13T08:20:36.552Z,59.03
2023-02-13T08:23:06.810Z,63.67
2023-02-13T08:25:37.283Z,53.43
2023-02-13T08:28:08.373Z,71.80
2023-02-13T08:30:40.958Z,75.23
2023-02-13T08:33:10.941Z,58.00
2023-02-13T08:35:40.850Z,51.30
2023-02-13T08:38:12.164Z,67.93
2023-02-13T08:40:42.129Z,67.03
2023-02-13T08:43:12.252Z,60.33
2023-02-13T08:45:44.869Z,55.00
2023-02-13T08:48:14.880Z,57.43
2023-02-13T08:50:44.805Z,55.87
2023-02-13T08:53:14.722Z,51.67
2023-02-13T08:55:44.705Z,52.13
2023-02-13T08:58:14.648Z,40.77
2023-02-13T09:00:47.227Z,55.33
2023-02-13T09:03:18.052Z,57.33
2023-02-13T09:05:48.513Z,62.20
2023-02-13T09:08:19.166Z,50.43
2023-02-13T09:10:49.100Z,53.37
2023-02-13T09:13:19.045Z,46.10
2023-02-13T09:15:51.554Z,51.63
2023-02-13T09:18:21.520Z,45.80
2023-02-13T09:20:51.461Z,44.03
2023-02-13T09:23:21.394Z,43.23
2023-02-13T09:25:51.325Z,42.83
2023-02-13T09:28:21.359Z,45.47
2023-02-13T09:30:53.961Z,42.20
2023-02-13T09:33:24.020Z,45.57
2023-02-13T09:35:54.985Z,37.60
2023-02-13T09:38:25.064Z,41.93
2023-02-13T09:41:00.887Z,36.10
2023-02-13T09:43:35.678Z,33.13
2023-02-13T09:46:18.784Z,29.70
2023-02-13T09:48:54.275Z,48.00
2023-02-13T09:51:27.924Z,43.20
2023-02-13T09:54:03.104Z,33.07
2023-02-13T09:57:00.602Z,31.40
2023-02-13T09:59:48.635Z,38.67
2023-02-13T10:02:43.987Z,36.03
2023-02-13T10:05:31.839Z,42.67
2023-02-13T10:08:09.456Z,33.83
2023-02-13T10:10:54.792Z,29.80
2023-02-13T10:13:50.817Z,28.17
2023-02-13T10:16:25.993Z,34.60
2023-02-13T10:19:07.717Z,37.77
2023-02-13T10:21:48.742Z,26.73
2023-02-13T10:24:32.780Z,23.07
2023-02-13T10:27:12.437Z,20.90
2023-02-13T10:30:03.294Z,25.67
2023-02-13T10:32:46.070Z,28.90
2023-02-13T10:35:32.072Z,24.63
2023-02-13T10:38:07.591Z,25.63
2023-02-13T10:40:47.739Z,21.67
2023-02-13T10:43:23.776Z,23.73
2023-02-13T10:46:11.770Z,20.07
2023-02-13T10:49:10.839Z,17.53
2023-02-13T10:51:54.483Z,25.70
2023-02-13T10:54:48.071Z,19.10
2023-02-13T10:57:26.556Z,20.10
2023-02-13T11:00:15.448Z,18.80
2023-02-13T11:02:45.507Z,15.67
2023-02-13T11:05:23.820Z,21.63
2023-02-13T11:07:56.579Z,15.43
2023-02-13T11:10:29.803Z,16.80
2023-02-13T11:12:59.781Z,22.80
2023-02-13T11:15:33.308Z,22.53
2023-02-13T11:18:17.718Z,17.20
2023-02-13T11:20:49.655Z,16.07
2023-02-13T11:23:43.197Z,19.10
2023-02-13T11:26:18.132Z,23.10
2023-02-13T11:28:57.486Z,18.30
2023-02-13T11:31:32.269Z,17.77
2023-02-13T11:34:26.438Z,16.20
2023-02-13T11:37:10.467Z,19.60
2023-02-13T11:39:44.389Z,23.57
2023-02-13T11:42:18.225Z,19.03
2023-02-13T11:44:55.067Z,14.30
2023-02-13T11:47:40.270Z,19.07
2023-02-13T11:50:27.474Z,20.73
2023-02-13T11:53:03.162Z,18.13
2023-02-13T11:55:40.355Z,19.27
2023-02-13T11:58:28.870Z,19.20
2023-02-13T12:01:24.508Z,18.17
2023-02-13T12:04:16.324Z,15.80
2023-02-13T12:07:04.663Z,17.30
2023-02-13T12:09:35.614Z,24.60
2023-02-13T12:12:09.828Z,19.70
2023-02-13T12:14:46.231Z,22.20
2023-02-13T12:17:31.474Z,19.83
2023-02-13T12:20:02.391Z,18.57
2023-02-13T12:22:50.773Z,16.00
2023-02-13T12:25:57.214Z,21.03
2023-02-13T12:28:47.192Z,20.13
2023-02-13T12:31:46.548Z,19.10
2023-02-13T12:34:55.785Z,22.30
2023-02-13T12:37:55.713Z,15.53
2023-02-13T12:41:05.469Z,19.10
2023-02-13T12:44:06.504Z,20.30
2023-02-13T12:46:48.318Z,18.13
2023-02-13T12:49:53.315Z,15.73
2023-02-13T12:52:43.297Z,18.00
2023-02-13T12:55:31.612Z,19.23
2023-02-13T12:58:21.177Z,16.70
2023-02-13T13:01:06.223Z,18.30
2023-02-13T13:03:48.159Z,21.93
2023-02-13T13:06:38.697Z,20.97
2023-02-13T13:09:38.409Z,17.57
2023-02-13T13:12:24.893Z,17.33
2023-02-13T13:15:04.263Z,18.03
2023-02-13T13:18:00.395Z,15.30
2023-02-13T13:20:52.132Z,14.07
2023-02-13T13:23:30.914Z,14.93
2023-02-13T13:26:16.654Z,14.80
2023-02-13T13:28:52.264Z,16.40
2023-02-13T13:31:25.549Z,15.70
2023-02-13T13:34:05.478Z,22.83
2023-02-13T13:36:47.961Z,13.43
2023-02-13T13:39:35.896Z,13.83
2023-02-13T13:42:18.683Z,12.70
2023-02-13T13:45:17.748Z,13.30
2023-02-13T13:48:30.344Z,17.20
2023-02-13T13:51:03.563Z,17.10
2023-02-13T13:53:33.636Z,25.73
2023-02-13T13:56:09.804Z,18.87
2023-02-13T13:58:46.267Z,13.97
2023-02-13T14:01:29.445Z,16.77
2023-02-13T14:04:02.370Z,17.77
2023-02-13T14:07:25.387Z,14.10
2023-02-13T14:09:55.437Z,17.93
2023-02-13T14:12:50.271Z,15.23
2023-02-13T14:15:55.166Z,15.53
2023-02-13T14:18:28.288Z,12.87
2023-02-13T14:21:01.104Z,14.40
2023-02-13T14:23:50.279Z,14.43
2023-02-13T14:26:35.704Z,14.77
2023-02-13T14:29:31.824Z,15.10
2023-02-13T14:32:20.469Z,14.60
2023-02-13T14:35:02.793Z,15.17
2023-02-13T14:37:40.678Z,15.90
2023-02-13T14:40:58.500Z,16.30
2023-02-13T14:43:37.710Z,14.27
2023-02-13T14:46:27.372Z,17.70
2023-02-13T14:49:05.237Z,15.90
2023-02-13T14:51:41.997Z,15.43
2023-02-13T14:54:26.787Z,16.37
2023-02-13T14:57:10.167Z,19.33
2023-02-13T14:59:47.610Z,13.83
2023-02-13T15:02:25.559Z,13.40
2023-02-13T15:05:01.249Z,14.50
2023-02-13T15:07:36.204Z,18.60
2023-02-13T15:10:30.095Z,13.30
2023-02-13T15:13:06.230Z,13.23
2023-02-13T15:15:39.702Z,14.77
2023-02-13T15:18:20.219Z,12.87
2023-02-13T15:20:50.940Z,14.90
2023-02-13T15:23:27.036Z,17.23
2023-02-13T15:26:02.881Z,19.70
2023-02-13T15:28:37.721Z,15.73
2023-02-13T15:31:22.850Z,17.83
2023-02-13T15:33:54.758Z,13.17
2023-02-13T15:36:28.100Z,19.57
2023-02-13T15:39:04.821Z,15.10
2023-02-13T15:41:39.866Z,13.43
2023-02-13T15:44:23.265Z,12.90
2023-02-13T15:46:56.397Z,19.87
2023-02-13T15:49:30.173Z,16.40
2023-02-13T15:52:11.399Z,13.80
2023-02-13T15:54:52.908Z,19.40
2023-02-13T15:57:24.527Z,16.67
2023-02-13T16:00:00.221Z,19.67
2023-02-13T16:02:43.297Z,17.40
2023-02-13T16:05:18.482Z,15.47
2023-02-13T16:07:55.284Z,18.33
2023-02-13T16:10:32.995Z,15.27
2023-02-13T16:13:07.864Z,17.00
2023-02-13T16:15:40.768Z,21.03
2023-02-13T16:18:23.720Z,14.57
2023-02-13T16:20:58.933Z,18.70
2023-02-13T16:23:30.937Z,18.53
2023-02-13T16:26:10.527Z,17.90
2023-02-13T16:28:40.586Z,17.10
2023-02-13T16:31:19.636Z,18.23
2023-02-13T16:33:49.680Z,19.77
2023-02-13T16:36:32.342Z,19.90
2023-02-13T16:39:23.557Z,19.43
2023-02-13T16:41:55.410Z,18.43
2023-02-13T16:44:29.566Z,23.47
2023-02-13T16:47:04.797Z,20.37
2023-02-13T16:49:37.365Z,14.60
2023-02-13T16:52:14.815Z,19.57
2023-02-13T16:54:57.174Z,17.97
2023-02-13T16:57:31.963Z,20.90
2023-02-13T17:00:08.655Z,18.07
2023-02-13T17:02:42.650Z,20.00
2023-02-13T17:05:24.059Z,23.63
2023-02-13T17:07:57.161Z,21.40
2023-02-13T17:10:31.178Z,24.93
2023-02-13T17:13:04.340Z,28.83
2023-02-13T17:15:35.321Z,24.37
2023-02-13T17:18:08.098Z,26.83
2023-02-13T17:20:40.366Z,18.77
2023-02-13T17:23:17.880Z,20.73
2023-02-13T17:25:49.705Z,18.20
2023-02-13T17:28:22.573Z,21.13
2023-02-13T17:30:56.390Z,14.73
2023-02-13T17:33:32.271Z,22.57
2023-02-13T17:36:02.377Z,19.57
2023-02-13T17:38:32.428Z,20.17
2023-02-13T17:41:02.947Z,20.77
2023-02-13T17:43:33.063Z,22.90
2023-02-13T17:46:04.129Z,21.30
2023-02-13T17:48:36.723Z,21.87
2023-02-13T17:51:07.342Z,23.70
2023-02-13T17:53:38.641Z,38.23
2023-02-13T17:56:08.622Z,22.00
2023-02-13T17:58:38.580Z,21.67
2023-02-13T18:01:08.630Z,27.43
2023-02-13T18:03:41.300Z,27.80
2023-02-13T18:06:15.965Z,26.10
2023-02-13T18:08:45.977Z,26.03
2023-02-13T18:11:15.999Z,29.70
2023-02-13T18:13:48.523Z,23.90
2023-02-13T18:16:19.360Z,30.80
2023-02-13T18:18:52.255Z,33.73
2023-02-13T18:21:25.360Z,27.70
2023-02-13T18:23:56.263Z,28.20
2023-02-13T18:26:26.335Z,31.77
2023-02-13T18:28:56.293Z,28.00
2023-02-13T18:31:26.556Z,27.40
2023-02-13T18:33:59.311Z,29.30
2023-02-13T18:36:29.666Z,31.60
2023-02-13T18:38:59.654Z,22.73
2023-02-13T18:41:29.655Z,35.83
2023-02-13T18:44:00.474Z,29.30
2023-02-13T18:46:30.539Z,21.40
2023-02-13T18:49:04.194Z,37.67
2023-02-13T18:51:34.563Z,32.90
2023-02-13T18:54:04.838Z,31.70
2023-02-13T18:56:35.097Z,33.57
2023-02-13T18:59:05.304Z,34.37
2023-02-13T19:01:35.540Z,25.13
2023-02-13T19:04:09.114Z,27.10
2023-02-13T19:06:43.462Z,22.73
2023-02-13T19:09:14.334Z,31.80
2023-02-13T19:11:44.530Z,30.10
2023-02-13T19:14:16.769Z,30.17
2023-02-13T19:16:46.762Z,25.80
2023-02-13T19:19:19.406Z,35.47
2023-02-13T19:21:49.409Z,30.27
2023-02-13T19:24:19.361Z,31.03
2023-02-13T19:26:49.652Z,30.27
2023-02-13T19:29:20.585Z,31.47
2023-02-13T19:31:50.604Z,27.70
2023-02-13T19:34:23.228Z,36.07
2023-02-13T19:36:53.167Z,25.53
2023-02-13T19:39:23.495Z,31.97
2023-02-13T19:41:53.471Z,34.53
2023-02-13T19:44:23.459Z,47.33
2023-02-13T19:46:53.571Z,32.07
2023-02-13T19:49:26.118Z,34.37
2023-02-13T19:51:56.195Z,36.60
2023-02-13T19:54:26.228Z,38.33
2023-02-13T19:57:00.385Z,28.27
2023-02-13T19:59:32.751Z,31.60
2023-02-13T20:02:02.791Z,40.30
2023-02-13T20:04:36.888Z,33.33
2023-02-13T20:07:07.768Z,40.80
2023-02-13T20:09:37.975Z,40.10
2023-02-13T20:12:08.470Z,33.60
2023-02-13T20:14:38.457Z,32.13
2023-02-13T20:17:08.571Z,36.20
2023-02-13T20:19:41.646Z,35.37
2023-02-13T20:22:16.470Z,31.03
2023-02-13T20:24:47.254Z,33.40
2023-02-13T20:27:17.487Z,26.57
2023-02-13T20:29:47.597Z,38.10
2023-02-13T20:32:17.616Z,32.70
2023-02-13T20:34:59.583Z,38.23
2023-02-13T20:37:30.120Z,37.40
2023-02-13T20:40:00.292Z,35.00
2023-02-13T20:42:30.651Z,34.57
2023-02-13T20:45:00.577Z,43.03
2023-02-13T20:47:31.033Z,44.23
2023-02-13T20:50:03.604Z,38.93
2023-02-13T20:52:33.588Z,35.87
2023-02-13T20:55:04.003Z,34.17
2023-02-13T20:57:36.547Z,35.80
2023-02-13T21:00:09.258Z,38.27
2023-02-13T21:02:39.325Z,38.97
2023-02-13T21:05:12.106Z,38.10
2023-02-13T21:07:42.189Z,42.47
2023-02-13T21:10:13.437Z,41.93
2023-02-13T21:12:43.527Z,43.13
2023-02-13T21:15:13.603Z,54.47
2023-02-13T21:17:43.612Z,34.80
2023-02-13T21:20:16.862Z,45.33
2023-02-13T21:22:47.181Z,32.50
2023-02-13T21:25:18.723Z,41.07
2023-02-13T21:27:48.710Z,35.87
2023-02-13T21:30:19.081Z,41.57
2023-02-13T21:32:49.039Z,47.90
2023-02-13T21:35:21.781Z,41.47
2023-02-13T21:37:51.768Z,40.83
2023-02-13T21:40:22.111Z,48.80
2023-02-13T21:42:55.135Z,43.30
2023-02-13T21:45:25.098Z,50.30
2023-02-13T21:47:58.828Z,44.63
2023-02-13T21:50:31.446Z,46.63
2023-02-13T21:53:01.566Z,44.23
2023-02-13T21:55:32.566Z,36.30
2023-02-13T21:58:02.930Z,45.07
2023-02-13T22:00:32.856Z,48.60
2023-02-13T22:03:02.845Z,43.77
2023-02-13T22:05:35.463Z,64.07
2023-02-13T22:08:14.172Z,47.37
2023-02-13T22:10:44.300Z,43.30
2023-02-13T22:13:14.252Z,42.73
2023-02-13T22:15:44.213Z,51.53
2023-02-13T22:18:14.227Z,39.70
2023-02-13T22:20:46.825Z,41.10
2023-02-13T22:23:16.788Z,48.90
2023-02-13T22:25:50.396Z,49.43
2023-02-13T22:28:20.696Z,40.73
2023-02-13T22:30:50.808Z,42.97
2023-02-13T22:33:20.945Z,44.57
2023-02-13T22:35:54.006Z,41.03
2023-02-13T22:38:23.971Z,46.93
2023-02-13T22:40:53.905Z,47.60
2023-02-13T22:43:23.837Z,42.07
2023-02-13T22:45:53.820Z,39.23
2023-02-13T22:48:23.812Z,42.83
2023-02-13T22:50:56.386Z,33.53
2023-02-13T22:53:26.469Z,34.63
2023-02-13T22:55:56.639Z,44.33
2023-02-13T22:58:26.828Z,39.80
2023-02-13T23:00:57.429Z,47.33
2023-02-13T23:03:28.458Z,50.43
2023-02-13T23:06:01.046Z,50.77
2023-02-13T23:08:31.021Z,45.93
2023-02-13T23:11:13.670Z,38.00
2023-02-13T23:13:48.360Z,50.07
2023-02-13T23:16:18.927Z,56.47
2023-02-13T23:18:52.403Z,49.43
2023-02-13T23:21:26.235Z,46.03
2023-02-13T23:23:56.186Z,48.00
2023-02-13T23:26:26.142Z,49.80
2023-02-13T23:28:56.100Z,47.83
2023-02-13T23:31:26.155Z,49.10
2023-02-13T23:33:56.149Z,47.97
2023-02-13T23:36:28.808Z,44.07
2023-02-13T23:38:58.785Z,47.23
2023-02-13T23:41:28.809Z,52.23
2023-02-13T23:43:58.852Z,61.93
2023-02-13T23:46:29.054Z,74.87
2023-02-13T23:48:59.275Z,52.90
2023-02-13T23:51:31.962Z,49.93
2023-02-13T23:54:01.895Z,59.77
2023-02-13T23:56:31.904Z,53.60
2023-02-13T23:59:02.086Z,53.63
